AirNav   Free Bose QuietComfort 20
 
 821 users online  

PA39 Penn Presbyterian Medical Center - North Heliport
Philadelphia, Pennsylvania, USA

GOING TO PHILADELPHIA?


FAA INFORMATION EFFECTIVE 05 DECEMBER 2019

Location

FAA Identifier: PA39
Lat/Long: 39-57-33.0000N 075-11-52.0000W
39-57.550000N 075-11.866667W
39.9591667,-75.1977778
(estimated)
Elevation: 194 ft. / 59 m (estimated)
Time zone: UTC -5 (UTC -4 during Daylight Saving Time)
Zip code: 19104

Heliport Operations

Heliport use: Private use. Permission required prior to landing
Activation date: 01/2016
Control tower: no
ARTCC: NEW YORK CENTER
FSS: WILLIAMSPORT FLIGHT SERVICE STATION
Attendance: 12 31 24
Wind indicator: lighted
Segmented circle: no
Beacon: ON DEMAND ROTATING HELIPORT BEACON.

Heliport Communications

WX ASOS at PHL (6 nm S): PHONE 215-492-9617
WX AWOS-3 at LOM (11 nm N): 118.925 (215-646-1068)
WX ASOS at PNE (11 nm NE): PHONE 215-677-0146
WX ASOS at VAY (16 nm E): 119.325 (609-267-1176)
WX AWOS-3T at OQN (18 nm W): 121.4 ((610) 692-6190)

Nearby radio navigation aids

VOR radial/distance  VOR name  Freq  Var
OODr024/20.0WOODSTOWN VORTAC112.8010W
MXEr093/21.9MODENA VORTAC113.2009W
ARDr227/22.1YARDLEY VOR/DME108.2010W
PTWr142/22.9POTTSTOWN VORTAC116.5009W
DQOr058/25.3DUPONT VORTAC114.0010W
VCNr347/27.4CEDAR LAKE VOR/DME115.2010W
GXUr276/27.8MC GUIRE VORTAC110.6012W
RBVr256/35.4ROBBINSVILLE VORTAC113.8010W
CYNr294/36.3COYLE VORTAC113.4010W

 
NDB name  Hdg/Dist  Freq  Var  ID
AMBLER170/10.827512WING .. -. --.
RAINBOW006/32.636311WRNB .-. -. -...
LAKEHURST274/40.039611WNEL -. . .-..

Heliport Services

Runway Information

Helipad H1

Dimensions: 65 x 65 ft. / 20 x 20 m
Surface: ROOF/TOP
Runway edge lights: medium intensity
MEDIUM INTENSITY GREEN PERIMETER LIGHTS.
Runway edge markings: WHITE HOSPITAL CROSS WITH RED H IN THE MIDDLE, WHITE BORDERLINE, BLACK NUMBERS INDICATING HELICOPTER WEIGHT AND ROTOR DIAMETER
Latitude: 39-57.502833N
Longitude: 075-11.903500W
Elevation: 75.0 ft.
Traffic pattern: leftleft

Helipad H2

Dimensions: 40 x 40 ft. / 12 x 12 m
Surface: ROOF/TOP
Latitude: 39-57.562833N
Longitude: 075-11.856167W
Elevation: 194.0 ft.
Traffic pattern: leftleft

Heliport Ownership and Management from official FAA records

Ownership: Privately-owned
Owner: PENN PRESBYTERIAN MEDICAL CENTER
51 N. 39TH STREET
PHILADELPHIA, PA 19104
Phone 215-662-9103
Manager: GARY K. GINSBERG
51 N. 39TH STREET
PHILADELPHIA, PA 19104
Phone 928-289-6344

Additional Remarks

HOSPITAL EMS FLIGHTS ONLY; PRIOR PERMISSION REQUIRED.
A ONE-HELICOPTER HELIPORT FOR ALL HELICOPTERS WITH GROSS WEIGHTS UP TO 22,000 LBS. LARGEST HELICOPTER: SIKORSKY UH-60 BLACKHAWK.
FOR CD CTC PHILADELPHIA APCH AT 800-354-9884.

Instrument Procedures

There are no published instrument procedures at PA39.

Some nearby airports with instrument procedures:

KPHL - Philadelphia International Airport (6 nm S)
KLOM - Wings Field Airport (11 nm N)
KPNE - Northeast Philadelphia Airport (11 nm NE)
19N - Camden County Airport (16 nm SE)
KVAY - South Jersey Regional Airport (16 nm E)
7N7 - Spitfire Aerodrome (16 nm SW)
17N - Cross Keys Airport (17 nm SE)
KOQN - Brandywine Regional Airport (18 nm W)
N14 - Flying W Airport (18 nm E)
N10 - Perkiomen Valley Airport (18 nm NW)
 
Loc | Ops | Rwys | IFR | FBO | Links
Com | Nav | Svcs | Stats | Notes
Aerial photo
No photo
 
Airport distance calculator
Flying to Penn Presbyterian Medical Center - North Heliport? Find the distance to fly.

From to PA39

Sunrise and sunset
Times for 12-Dec-2019
 Local
(UTC-5)
 Zulu
(UTC)
Morning civil twilight06:4411:44
Sunrise07:1412:14
Sunset16:3521:35
Evening civil twilight17:0522:05

Current date and time
Zulu (UTC)  13-Dec-2019 00:51:19
Local (UTC-5)  12-Dec-2019 19:51:19
 
METAR
KPHL 
6nm S 
122354Z 16005KT 10SM SCT250 01/M09 A3069 RMK AO2 SLP391 T00061094 10039 20006 56002
KLOM 
11nm N 
130035Z AUTO 00000KT 10SM CLR M04/M05 A3066 RMK AO2 T10411053
KPNE 
11nm NE 
122354Z 14004KT 10SM CLR 00/M09 A3069 RMK AO2 SLP395 T00001089 10039 21006 55001
KVAY 
17nm E 
ASOS 119.325 609-267-1176
122354Z AUTO 13003KT 10SM CLR M01/M08 A3070 RMK AO2 SLP395 T10111078 10033 21017 53004
KOQN 
18nm W 
130035Z AUTO 00000KT 10SM CLR 00/M08 A3065 RMK AO2
TAF
KPHL 
6nm S 
122048Z 1221/1324 15004KT P6SM SCT250 FM130000 12003KT P6SM BKN200 FM130700 08004KT P6SM OVC040 FM131100 07004KT P6SM OVC025 FM131500 08004KT P6SM VCSH OVC015 FM131800 08005KT 4SM -SHRA BR OVC008
KPNE 
11nm NE 
121721Z 1218/1318 10005KT P6SM SCT250 FM130000 VRB03KT P6SM BKN200 FM130800 VRB03KT P6SM OVC040 FM131100 VRB03KT P6SM OVC025 FM131500 08005KT P6SM VCSH OVC015
NOTAMs
Click for the latest NOTAMs
NOTAMs are issued by the DoD/FAA and will open in a separate window not controlled by AirNav.

 

 
 

Would you like to see your business listed on this page?

 If your business provides an interesting product or service to pilots, flight crews, aircraft, or users of the Penn Presbyterian Medical Center - North Heliport, you should consider listing it here.  To start the listing process, click on the button below
 
Add a business
 

Other Pages about Penn Presbyterian Medical Center - North Heliport

Update a link
 
Copyright © AirNav, LLC. All rights reserved. Privacy Policy  Contact